Time;durP1;ratioP1;P1;durP2;ratioP2;P2;SDS_P1;SDS_P2;PMS_P1;PMS_P2;Temp;Humidity;BMP_temperature;BMP_pressure;BME280_temperature;BME280_humidity;BME280_pressure;Samples;Min_cycle;Max_cycle;Signal;HPM_P1;HPM_P2
2023/10/02 00:00:18;;;;;;;4.93;2.35;;;;;;;;;;2104358;28;20107;-63
2023/10/02 00:01:41;;;;;;;5.45;1.88;;;;;;;;;;2102816;28;20024;-64
2023/10/02 00:03:00;;;;;;;5.68;2.30;;;;;;;;;;2104593;28;20024;-63
2023/10/02 00:04:19;;;;;;;3.15;2.10;;;;;;;;;;2103371;28;20040;-63
2023/10/02 00:05:50;;;;;;;2.28;1.90;;;;;;;;;;2104238;28;20028;-63
2023/10/02 00:07:14;;;;;;;4.03;2.80;;;;;;;;;;2103442;28;20037;-63
2023/10/02 00:08:42;;;;;;;7.10;2.58;;;;;;;;;;2104629;28;20028;-63
2023/10/02 00:10:02;;;;;;;5.60;2.13;;;;;;;;;;2104824;28;20024;-63
2023/10/02 00:11:39;;;;;;;5.80;2.47;;;;;;;;;;2103910;28;20541;-65
2023/10/02 00:13:00;;;;;;;6.95;2.60;;;;;;;;;;2102081;28;20020;-63
2023/10/02 00:14:20;;;;;;;7.07;2.33;;;;;;;;;;2102841;28;20028;-63
2023/10/02 00:15:39;;;;;;;6.80;2.50;;;;;;;;;;2104661;28;20060;-63
2023/10/02 00:16:59;;;;;;;5.35;2.30;;;;;;;;;;2105232;28;20020;-63
2023/10/02 00:18:18;;;;;;;6.28;2.17;;;;;;;;;;2103861;28;20021;-63
2023/10/02 00:19:38;;;;;;;3.22;2.20;;;;;;;;;;2104177;28;20516;-64
2023/10/02 00:21:18;;;;;;;4.25;2.00;;;;;;;;;;2103465;28;20023;-63
2023/10/02 00:22:41;;;;;;;3.03;2.20;;;;;;;;;;2102568;28;20028;-63
2023/10/02 00:24:00;;;;;;;5.07;2.63;;;;;;;;;;2104889;28;20044;-63
2023/10/02 00:25:22;;;;;;;4.97;2.80;;;;;;;;;;2105456;28;20103;-63
2023/10/02 00:26:42;;;;;;;4.28;1.90;;;;;;;;;;2104975;28;20044;-64
2023/10/02 00:28:01;;;;;;;3.72;2.17;;;;;;;;;;2103690;28;20021;-63
2023/10/02 00:29:23;;;;;;;4.13;2.10;;;;;;;;;;2103088;28;20028;-63
2023/10/02 00:30:43;;;;;;;4.40;2.58;;;;;;;;;;2103073;28;20028;-63
2023/10/02 00:32:10;;;;;;;8.52;2.60;;;;;;;;;;2104471;28;20516;-63
2023/10/02 00:33:31;;;;;;;4.30;1.98;;;;;;;;;;2105024;28;20468;-63
2023/10/02 00:34:50;;;;;;;4.80;2.58;;;;;;;;;;2101471;28;20036;-64
2023/10/02 00:36:09;;;;;;;4.38;2.03;;;;;;;;;;2103479;28;20024;-63
2023/10/02 00:37:44;;;;;;;3.70;2.20;;;;;;;;;;2105583;28;20044;-63
2023/10/02 00:40:42;;;;;;;6.40;2.30;;;;;;;;;;2104311;28;20031;-63
2023/10/02 00:42:15;;;;;;;6.28;2.08;;;;;;;;;;2104446;28;20028;-63
2023/10/02 00:43:35;;;;;;;5.88;2.63;;;;;;;;;;2105101;28;20032;-63
2023/10/02 00:44:54;;;;;;;5.75;2.13;;;;;;;;;;2102802;28;20067;-63
2023/10/02 00:46:23;;;;;;;5.35;2.22;;;;;;;;;;2104377;28;20659;-63
2023/10/02 00:47:42;;;;;;;5.55;1.95;;;;;;;;;;2103696;28;20032;-63
2023/10/02 00:49:23;;;;;;;3.55;1.95;;;;;;;;;;2105025;28;20020;-63
2023/10/02 00:50:48;;;;;;;4.13;2.35;;;;;;;;;;2103228;28;20024;-63
2023/10/02 00:52:08;;;;;;;5.47;2.22;;;;;;;;;;2103431;28;20024;-63
2023/10/02 00:53:39;;;;;;;6.45;2.28;;;;;;;;;;2103633;28;20055;-63
2023/10/02 00:55:02;;;;;;;3.92;2.17;;;;;;;;;;2103586;28;20032;-63
2023/10/02 00:56:24;;;;;;;6.82;2.20;;;;;;;;;;2103282;28;20032;-63
2023/10/02 00:57:45;;;;;;;4.00;2.00;;;;;;;;;;2103594;28;20024;-63
2023/10/02 00:59:14;;;;;;;3.22;1.85;;;;;;;;;;2104822;28;20044;-63
2023/10/02 01:00:37;;;;;;;4.25;2.20;;;;;;;;;;2104589;28;20062;-63
2023/10/02 01:01:56;;;;;;;4.95;1.88;;;;;;;;;;2101700;28;20037;-63
2023/10/02 01:03:15;;;;;;;4.93;2.40;;;;;;;;;;2103612;28;20032;-63
2023/10/02 01:04:35;;;;;;;4.78;2.08;;;;;;;;;;2103644;28;20536;-63
2023/10/02 01:05:58;;;;;;;3.42;2.38;;;;;;;;;;2103171;28;20067;-63
2023/10/02 01:07:17;;;;;;;;;;;;;;;;;;2102297;28;20032;-63
2023/10/02 01:08:46;;;;;;;4.25;2.22;;;;;;;;;;2104902;28;19908;-63
2023/10/02 01:10:11;;;;;;;7.15;2.30;;;;;;;;;;2103325;28;20035;-63
2023/10/02 01:11:34;;;;;;;5.68;2.20;;;;;;;;;;2104896;28;20055;-63
2023/10/02 01:12:53;;;;;;;6.38;2.08;;;;;;;;;;2103961;28;20028;-63
2023/10/02 01:14:14;;;;;;;6.80;2.25;;;;;;;;;;2102073;28;20040;-63
2023/10/02 01:15:34;;;;;;;3.65;1.98;;;;;;;;;;2104503;28;20029;-63
2023/10/02 01:16:54;;;;;;;4.07;1.77;;;;;;;;;;2106499;28;20016;-63
2023/10/02 01:18:22;;;;;;;5.47;2.10;;;;;;;;;;2103515;28;20032;-63
2023/10/02 01:19:53;;;;;;;4.20;2.08;;;;;;;;;;2104930;28;20024;-63
2023/10/02 01:21:12;;;;;;;4.22;1.75;;;;;;;;;;2105305;28;20044;-63
2023/10/02 01:22:37;;;;;;;4.93;2.30;;;;;;;;;;2103930;28;20016;-63
2023/10/02 01:24:17;;;;;;;3.38;2.17;;;;;;;;;;2104743;28;20036;-63
2023/10/02 01:25:37;;;;;;;3.35;1.77;;;;;;;;;;2104044;28;20028;-63
2023/10/02 01:26:57;;;;;;;5.32;1.73;;;;;;;;;;2104619;28;20036;-63
2023/10/02 01:28:25;;;;;;;5.22;2.35;;;;;;;;;;2105709;28;20027;-63
2023/10/02 01:29:44;;;;;;;6.90;2.25;;;;;;;;;;2104096;28;20028;-63
2023/10/02 01:31:31;;;;;;;3.75;1.98;;;;;;;;;;2102962;28;20044;-63
2023/10/02 01:34:47;;;;;;;8.23;2.17;;;;;;;;;;2098984;28;20024;-63
2023/10/02 01:36:08;;;;;;;3.83;1.63;;;;;;;;;;2102397;28;20032;-63
2023/10/02 01:37:33;;;;;;;5.72;1.92;;;;;;;;;;2102811;28;21130;-63
2023/10/02 01:38:55;;;;;;;2.85;2.00;;;;;;;;;;2104559;28;20036;-63
2023/10/02 01:40:33;;;;;;;8.30;2.45;;;;;;;;;;2103057;28;20032;-63
2023/10/02 01:41:52;;;;;;;5.95;2.75;;;;;;;;;;2103430;28;20477;-63
2023/10/02 01:43:12;;;;;;;5.85;1.83;;;;;;;;;;2103111;28;20048;-63
2023/10/02 01:44:31;;;;;;;5.38;1.80;;;;;;;;;;2103262;28;20044;-63
2023/10/02 01:45:56;;;;;;;5.03;2.10;;;;;;;;;;2103833;28;20485;-63
2023/10/02 01:47:15;;;;;;;2.67;1.77;;;;;;;;;;2101451;28;20408;-63
2023/10/02 01:48:38;;;;;;;3.67;2.00;;;;;;;;;;2103423;28;20103;-63
2023/10/02 01:50:00;;;;;;;4.00;1.80;;;;;;;;;;2103560;28;20028;-63
2023/10/02 01:52:45;;;;;;;6.03;2.75;;;;;;;;;;2104006;28;20020;-63
2023/10/02 01:54:15;;;;;;;6.63;1.95;;;;;;;;;;2102526;28;20451;-63
2023/10/02 01:55:35;;;;;;;8.90;2.40;;;;;;;;;;2103345;28;20628;-63
2023/10/02 01:56:55;;;;;;;3.83;1.90;;;;;;;;;;2102626;28;20028;-63
2023/10/02 01:58:17;;;;;;;4.28;1.55;;;;;;;;;;2101476;28;20306;-63
2023/10/02 01:59:36;;;;;;;3.75;2.00;;;;;;;;;;2103742;28;20405;-63
2023/10/02 02:00:57;;;;;;;3.50;1.73;;;;;;;;;;2102590;28;20469;-63
2023/10/02 02:02:15;;;;;;;6.80;1.95;;;;;;;;;;2101615;28;20036;-63
2023/10/02 02:03:38;;;;;;;6.35;1.80;;;;;;;;;;2104052;28;20384;-63
2023/10/02 02:04:58;;;;;;;6.25;1.90;;;;;;;;;;2105902;28;20036;-62
2023/10/02 02:06:23;;;;;;;6.13;1.80;;;;;;;;;;2098717;28;20067;-63
2023/10/02 02:07:42;;;;;;;4.68;1.95;;;;;;;;;;2102303;28;20757;-63
2023/10/02 02:09:01;;;;;;;2.80;1.85;;;;;;;;;;2103294;28;20039;-63
2023/10/02 02:10:22;;;;;;;4.30;1.60;;;;;;;;;;2104476;28;20020;-63
2023/10/02 02:11:41;;;;;;;3.67;2.28;;;;;;;;;;2102772;28;20020;-63
2023/10/02 02:13:00;;;;;;;9.73;2.10;;;;;;;;;;2103363;28;20036;-63
2023/10/02 02:14:19;;;;;;;6.50;2.00;;;;;;;;;;2102863;28;20028;-63
2023/10/02 02:15:44;;;;;;;3.80;1.90;;;;;;;;;;2103964;28;20055;-63
2023/10/02 02:17:03;;;;;;;3.95;2.00;;;;;;;;;;2099811;28;20020;-63
2023/10/02 02:18:22;;;;;;;2.75;1.65;;;;;;;;;;2102043;28;20028;-63
2023/10/02 02:19:48;;;;;;;6.32;2.17;;;;;;;;;;2102475;28;20024;-63
2023/10/02 02:21:10;;;;;;;6.50;1.83;;;;;;;;;;2103403;28;20031;-63
2023/10/02 02:22:32;;;;;;;6.57;2.13;;;;;;;;;;2101774;28;20469;-63
2023/10/02 02:24:03;;;;;;;6.25;2.08;;;;;;;;;;2104123;28;20493;-63
2023/10/02 02:25:26;;;;;;;5.35;1.90;;;;;;;;;;2098231;28;20475;-63
2023/10/02 02:26:57;;;;;;;3.42;1.60;;;;;;;;;;2101834;28;20489;-63
2023/10/02 02:28:17;;;;;;;7.03;2.03;;;;;;;;;;2100845;28;20115;-63
2023/10/02 02:29:36;;;;;;;4.57;1.70;;;;;;;;;;2101019;28;20579;-64
2023/10/02 02:30:55;;;;;;;6.82;2.20;;;;;;;;;;2102841;28;20032;-63
2023/10/02 02:32:19;;;;;;;6.00;1.88;;;;;;;;;;2102952;28;20477;-63
2023/10/02 02:33:38;;;;;;;5.38;2.05;;;;;;;;;;2101067;28;20032;-63
2023/10/02 02:35:00;;;;;;;2.83;1.98;;;;;;;;;;2104267;28;20476;-63
2023/10/02 02:36:21;;;;;;;3.58;2.03;;;;;;;;;;2103553;28;20039;-63
2023/10/02 02:37:41;;;;;;;7.90;1.90;;;;;;;;;;2101803;28;20732;-63
2023/10/02 02:39:16;;;;;;;6.10;2.47;;;;;;;;;;2099232;28;20020;-63
2023/10/02 02:40:35;;;;;;;5.45;2.17;;;;;;;;;;2103988;28;20035;-63
2023/10/02 02:43:37;;;;;;;3.25;1.75;;;;;;;;;;2103685;28;20039;-63
2023/10/02 02:44:56;;;;;;;3.28;1.42;;;;;;;;;;2102130;28;20548;-63
2023/10/02 02:46:17;;;;;;;3.63;1.80;;;;;;;;;;2103842;28;20036;-63
2023/10/02 02:47:51;;;;;;;3.08;1.90;;;;;;;;;;2103519;28;20028;-63
2023/10/02 02:49:11;;;;;;;6.03;1.92;;;;;;;;;;2102941;28;20480;-63
2023/10/02 02:50:42;;;;;;;6.45;2.50;;;;;;;;;;2100749;28;20021;-63
2023/10/02 02:52:01;;;;;;;6.10;2.30;;;;;;;;;;2102134;28;20020;-63
2023/10/02 02:53:23;;;;;;;4.82;2.50;;;;;;;;;;2102515;28;20493;-63
2023/10/02 02:54:44;;;;;;;9.90;2.40;;;;;;;;;;2100943;28;20040;-63
2023/10/02 02:57:39;;;;;;;6.22;1.95;;;;;;;;;;2102569;28;20024;-63
2023/10/02 02:59:01;;;;;;;4.28;2.25;;;;;;;;;;2102610;28;20020;-62
2023/10/02 03:00:31;;;;;;;5.55;1.98;;;;;;;;;;2100163;28;20032;-64
2023/10/02 03:01:50;;;;;;;7.18;2.22;;;;;;;;;;2103385;28;20036;-63
2023/10/02 03:04:49;;;;;;;4.82;1.70;;;;;;;;;;2102125;28;20089;-64
2023/10/02 03:06:22;;;;;;;4.85;2.33;;;;;;;;;;2102572;28;20059;-63
2023/10/02 03:07:42;;;;;;;3.78;1.83;;;;;;;;;;2102533;28;20038;-63
2023/10/02 03:09:01;;;;;;;5.53;2.40;;;;;;;;;;2103662;28;20477;-63
2023/10/02 03:10:23;;;;;;;3.95;2.00;;;;;;;;;;2103258;28;20036;-63
2023/10/02 03:11:42;;;;;;;7.82;2.70;;;;;;;;;;2102387;28;20020;-63
2023/10/02 03:13:01;;;;;;;5.57;1.85;;;;;;;;;;2100889;28;20074;-63
2023/10/02 03:14:22;;;;;;;6.00;2.50;;;;;;;;;;2103783;28;20028;-63
2023/10/02 03:15:48;;;;;;;5.10;2.20;;;;;;;;;;2104255;28;20103;-63
2023/10/02 03:17:28;;;;;;;7.13;2.65;;;;;;;;;;2103049;28;20047;-63
2023/10/02 03:18:54;;;;;;;5.32;2.42;;;;;;;;;;2104909;28;20059;-63
2023/10/02 03:20:22;;;;;;;3.45;1.80;;;;;;;;;;2104801;28;20032;-63
2023/10/02 03:21:42;;;;;;;5.10;1.92;;;;;;;;;;2104077;28;20028;-63
2023/10/02 03:23:11;;;;;;;3.40;1.90;;;;;;;;;;2105654;28;20020;-63
2023/10/02 03:24:29;;;;;;;5.43;1.67;;;;;;;;;;2104740;28;20032;-63
2023/10/02 03:25:48;;;;;;;4.85;2.30;;;;;;;;;;2105729;28;20114;-63
2023/10/02 03:27:08;;;;;;;4.82;2.25;;;;;;;;;;2104106;28;20016;-63
2023/10/02 03:28:27;;;;;;;4.22;1.90;;;;;;;;;;2104622;28;20039;-63
2023/10/02 03:29:46;;;;;;;4.93;1.90;;;;;;;;;;2104256;28;20020;-63
2023/10/02 03:31:09;;;;;;;7.00;2.42;;;;;;;;;;2104577;28;20028;-63
2023/10/02 03:32:45;;;;;;;7.95;2.60;;;;;;;;;;2105440;28;20045;-63
2023/10/02 03:35:56;;;;;;;5.53;1.90;;;;;;;;;;2104251;28;20032;-63
2023/10/02 03:37:15;;;;;;;5.45;2.58;;;;;;;;;;2104245;28;20036;-63
2023/10/02 03:38:41;;;;;;;4.43;1.92;;;;;;;;;;2105403;28;20036;-63
2023/10/02 03:40:00;;;;;;;6.28;2.20;;;;;;;;;;2104971;28;20058;-63
2023/10/02 03:41:19;;;;;;;5.97;2.10;;;;;;;;;;2104878;28;20024;-63
2023/10/02 03:42:39;;;;;;;3.97;2.00;;;;;;;;;;2105076;28;20021;-63
2023/10/02 03:43:58;;;;;;;3.88;2.17;;;;;;;;;;2103935;28;20032;-63
2023/10/02 03:45:17;;;;;;;4.80;2.10;;;;;;;;;;2103614;28;20024;-63
2023/10/02 03:46:37;;;;;;;7.88;1.85;;;;;;;;;;2104573;28;20107;-63
2023/10/02 03:48:02;;;;;;;5.68;2.20;;;;;;;;;;2105395;28;20219;-63
2023/10/02 03:49:23;;;;;;;6.53;2.45;;;;;;;;;;2105203;28;20036;-63
2023/10/02 03:50:44;;;;;;;6.55;1.98;;;;;;;;;;2104259;28;20469;-63
2023/10/02 03:52:05;;;;;;;6.03;2.03;;;;;;;;;;2103657;28;20111;-63
2023/10/02 03:53:30;;;;;;;4.78;1.83;;;;;;;;;;2103175;28;20107;-64
2023/10/02 03:54:54;;;;;;;5.25;1.90;;;;;;;;;;2104331;28;20106;-63
2023/10/02 03:57:52;;;;;;;4.10;1.98;;;;;;;;;;2104055;28;20560;-63
2023/10/02 03:59:11;;;;;;;4.95;1.80;;;;;;;;;;2104850;28;20032;-63
2023/10/02 04:00:43;;;;;;;4.38;1.95;;;;;;;;;;2103612;28;20031;-63
2023/10/02 04:03:55;;;;;;;6.18;2.17;;;;;;;;;;2103542;28;20024;-63
2023/10/02 04:05:42;;;;;;;3.45;1.95;;;;;;;;;;2104206;28;20032;-63
2023/10/02 04:07:01;;;;;;;5.93;2.00;;;;;;;;;;2103673;28;20477;-63
2023/10/02 04:09:39;;;;;;;5.95;1.98;;;;;;;;;;2103481;28;20476;-63
2023/10/02 04:11:03;;;;;;;5.82;1.90;;;;;;;;;;2099560;28;20033;-63
2023/10/02 04:12:22;;;;;;;4.72;1.95;;;;;;;;;;2100449;28;20028;-63
2023/10/02 04:13:45;;;;;;;4.35;1.88;;;;;;;;;;2104380;28;20118;-63
2023/10/02 04:15:11;;;;;;;5.60;2.10;;;;;;;;;;2102351;28;20059;-63
2023/10/02 04:16:30;;;;;;;5.03;1.98;;;;;;;;;;2102569;28;20500;-63
2023/10/02 04:17:50;;;;;;;2.20;1.75;;;;;;;;;;2102060;28;20036;-63
2023/10/02 04:19:09;;;;;;;5.78;2.38;;;;;;;;;;2105908;28;20032;-63
2023/10/02 04:20:28;;;;;;;5.68;2.28;;;;;;;;;;2104007;28;20040;-63
2023/10/02 04:21:47;;;;;;;7.88;1.80;;;;;;;;;;2102078;28;20036;-63
2023/10/02 04:23:21;;;;;;;5.72;2.17;;;;;;;;;;2103513;28;20032;-63
2023/10/02 04:24:54;;;;;;;;;;;;;;;;;;2105504;28;20442;-63
2023/10/02 04:26:19;;;;;;;4.07;2.05;;;;;;;;;;2100536;28;19998;-63
2023/10/02 04:30:45;;;;;;;4.93;2.03;;;;;;;;;;2104106;28;20940;-63
2023/10/02 04:32:19;;;;;;;3.28;2.03;;;;;;;;;;2103215;28;20019;-63
2023/10/02 04:33:38;;;;;;;5.70;2.20;;;;;;;;;;2102585;28;20020;-63
2023/10/02 04:34:58;;;;;;;7.03;2.10;;;;;;;;;;2101781;28;20028;-63
2023/10/02 04:36:28;;;;;;;6.63;2.00;;;;;;;;;;2100798;28;20032;-63
2023/10/02 04:37:48;;;;;;;6.97;1.83;;;;;;;;;;2103949;28;20035;-63
2023/10/02 04:40:51;;;;;;;4.88;2.13;;;;;;;;;;2101191;28;20496;-63
2023/10/02 04:42:19;;;;;;;4.00;1.87;;;;;;;;;;2100756;28;20052;-63
2023/10/02 04:43:38;;;;;;;6.65;2.58;;;;;;;;;;2102967;28;20773;-64
2023/10/02 04:44:57;;;;;;;4.40;1.67;;;;;;;;;;2105717;28;20587;-64
2023/10/02 04:46:16;;;;;;;4.97;1.75;;;;;;;;;;2105005;28;20031;-64
2023/10/02 04:47:35;;;;;;;6.22;2.42;;;;;;;;;;2102878;28;20042;-64
2023/10/02 04:48:59;;;;;;;7.85;2.30;;;;;;;;;;2103058;28;20024;-64
2023/10/02 04:51:46;;;;;;;4.30;1.90;;;;;;;;;;2102636;28;20028;-63
2023/10/02 04:54:34;;;;;;;8.85;2.28;;;;;;;;;;2103575;28;20028;-64
2023/10/02 04:57:34;;;;;;;4.32;1.77;;;;;;;;;;2101786;28;20103;-64
2023/10/02 04:58:57;;;;;;;5.97;2.03;;;;;;;;;;2102780;28;20020;-63
2023/10/02 05:00:32;;;;;;;;;;;;;;;;;;2103543;28;20028;-63
2023/10/02 05:02:20;;;;;;;6.38;2.25;;;;;;;;;;2104102;28;19923;-63
2023/10/02 05:03:30;;;;;;;4.65;1.90;;;;;;;;;;2102206;28;20481;-64
2023/10/02 05:04:56;;;;;;;8.02;2.53;;;;;;;;;;2104154;28;20036;-63
2023/10/02 05:06:39;;;;;;;6.07;2.08;;;;;;;;;;2102390;28;20497;-64
2023/10/02 05:07:57;;;;;;;5.45;2.15;;;;;;;;;;2102807;28;20024;-64
2023/10/02 05:09:20;;;;;;;3.65;1.77;;;;;;;;;;2103053;28;20519;-64
2023/10/02 05:10:39;;;;;;;10.00;2.60;;;;;;;;;;2103063;28;20028;-64
2023/10/02 05:12:04;;;;;;;5.93;2.40;;;;;;;;;;2104973;28;20111;-64
2023/10/02 05:15:07;;;;;;;9.13;2.10;;;;;;;;;;2103257;28;20028;-64
2023/10/02 05:16:29;;;;;;;8.20;2.03;;;;;;;;;;2100990;28;20040;-64
2023/10/02 05:17:48;;;;;;;8.85;2.08;;;;;;;;;;2101288;28;20028;-64
2023/10/02 05:19:08;;;;;;;7.25;2.08;;;;;;;;;;2103525;28;20397;-64
2023/10/02 05:20:27;;;;;;;8.55;2.30;;;;;;;;;;2102582;28;20103;-64
2023/10/02 05:21:50;;;;;;;4.70;2.15;;;;;;;;;;2103089;28;20028;-64
2023/10/02 05:23:10;;;;;;;12.20;2.30;;;;;;;;;;2103428;28;20037;-64
2023/10/02 05:24:32;;;;;;;7.53;1.77;;;;;;;;;;2102350;28;20036;-64
2023/10/02 05:25:50;;;;;;;3.42;2.42;;;;;;;;;;2103022;28;20040;-64
2023/10/02 05:27:27;;;;;;;5.10;2.22;;;;;;;;;;2103152;28;20036;-64
2023/10/02 05:28:48;;;;;;;5.85;2.28;;;;;;;;;;2102336;28;20540;-64
2023/10/02 05:30:17;;;;;;;8.15;2.70;;;;;;;;;;2100237;28;20020;-64
2023/10/02 05:31:36;;;;;;;7.13;2.20;;;;;;;;;;2104105;28;20103;-64
2023/10/02 05:32:56;;;;;;;3.38;2.70;;;;;;;;;;2101467;28;20028;-64
2023/10/02 05:34:21;;;;;;;4.90;2.60;;;;;;;;;;2104280;28;20426;-64
2023/10/02 05:35:45;;;;;;;9.07;2.85;;;;;;;;;;2104024;28;20033;-64
2023/10/02 05:38:28;;;;;;;5.30;2.87;;;;;;;;;;2099083;28;20024;-64
2023/10/02 05:39:47;;;;;;;6.40;2.38;;;;;;;;;;2100926;28;20138;-64
2023/10/02 05:41:12;;;;;;;6.65;2.90;;;;;;;;;;2103910;28;20024;-64
2023/10/02 05:42:37;;;;;;;4.53;2.47;;;;;;;;;;2102609;28;20028;-64
2023/10/02 05:43:56;;;;;;;5.55;2.42;;;;;;;;;;2101401;28;20115;-64
2023/10/02 05:45:17;;;;;;;9.60;3.30;;;;;;;;;;2101231;28;20545;-64
2023/10/02 05:46:54;;;;;;;8.43;3.25;;;;;;;;;;2101245;28;20036;-64
2023/10/02 05:48:15;;;;;;;9.65;3.85;;;;;;;;;;2102832;28;20099;-64
2023/10/02 05:49:47;;;;;;;10.38;4.40;;;;;;;;;;2103319;28;20888;-64
2023/10/02 05:51:15;;;;;;;11.88;3.78;;;;;;;;;;2103899;28;20106;-64
2023/10/02 05:52:35;;;;;;;8.85;3.45;;;;;;;;;;2099031;28;20136;-64
2023/10/02 05:53:55;;;;;;;6.70;3.35;;;;;;;;;;2100222;28;20032;-64
2023/10/02 05:55:17;;;;;;;5.05;3.25;;;;;;;;;;2103144;28;20138;-64
2023/10/02 05:56:36;;;;;;;8.65;3.53;;;;;;;;;;2098003;28;20032;-64
2023/10/02 05:57:57;;;;;;;8.55;3.28;;;;;;;;;;2100167;28;20036;-64
2023/10/02 05:59:24;;;;;;;5.65;3.03;;;;;;;;;;2102493;28;20028;-67
2023/10/02 06:00:45;;;;;;;4.55;3.22;;;;;;;;;;2103082;28;20036;-64
2023/10/02 06:02:03;;;;;;;5.95;3.13;;;;;;;;;;2102570;28;20103;-64
2023/10/02 06:03:23;;;;;;;8.48;2.88;;;;;;;;;;2102174;28;20032;-64
2023/10/02 06:04:48;;;;;;;5.72;2.75;;;;;;;;;;2104040;28;20028;-65
2023/10/02 06:06:15;;;;;;;10.00;3.50;;;;;;;;;;2102908;28;20115;-64
2023/10/02 06:07:43;;;;;;;8.35;3.17;;;;;;;;;;2103009;28;20027;-64
2023/10/02 06:09:12;;;;;;;6.30;3.00;;;;;;;;;;2102240;28;20027;-64
2023/10/02 06:10:34;;;;;;;9.73;3.38;;;;;;;;;;2103641;28;20103;-64
2023/10/02 06:11:59;;;;;;;11.52;3.47;;;;;;;;;;2103408;28;20161;-64
2023/10/02 06:13:37;;;;;;;6.80;3.17;;;;;;;;;;2101599;28;20028;-64
2023/10/02 06:14:55;;;;;;;9.60;3.80;;;;;;;;;;2102545;28;20423;-64
2023/10/02 06:16:14;;;;;;;8.57;2.83;;;;;;;;;;2103381;28;20043;-64
2023/10/02 06:17:35;;;;;;;5.72;2.45;;;;;;;;;;2103624;28;20520;-64
2023/10/02 06:19:00;;;;;;;7.25;3.38;;;;;;;;;;2102729;28;20392;-64
2023/10/02 06:20:19;;;;;;;8.32;2.88;;;;;;;;;;2103783;28;20036;-64
2023/10/02 06:23:22;;;;;;;8.70;3.33;;;;;;;;;;2101973;28;20501;-64
2023/10/02 06:24:45;;;;;;;8.45;3.33;;;;;;;;;;2101647;28;20024;-64
2023/10/02 06:26:10;;;;;;;5.93;3.03;;;;;;;;;;2103661;28;20055;-64
2023/10/02 06:27:41;;;;;;;9.73;3.03;;;;;;;;;;2102184;28;20116;-64
2023/10/02 06:30:38;;;;;;;7.47;3.20;;;;;;;;;;2103899;28;20044;-64
2023/10/02 06:32:05;;;;;;;8.85;3.72;;;;;;;;;;2103051;28;20020;-64
2023/10/02 06:33:24;;;;;;;11.90;3.72;;;;;;;;;;2103244;28;20024;-64
2023/10/02 06:34:44;;;;;;;9.68;3.65;;;;;;;;;;2101923;28;20028;-64
2023/10/02 06:36:06;;;;;;;9.25;3.35;;;;;;;;;;2102401;28;20115;-64
2023/10/02 06:37:28;;;;;;;9.10;3.22;;;;;;;;;;2102448;28;20044;-66
2023/10/02 06:38:48;;;;;;;5.13;3.17;;;;;;;;;;2102827;28;20055;-64
2023/10/02 06:40:14;;;;;;;7.40;3.30;;;;;;;;;;2102355;28;20028;-64
2023/10/02 06:41:34;;;;;;;7.97;3.28;;;;;;;;;;2101979;28;20103;-63
2023/10/02 06:43:00;;;;;;;6.88;3.17;;;;;;;;;;2102318;28;20032;-64
2023/10/02 06:44:20;;;;;;;7.82;3.30;;;;;;;;;;2102434;28;20029;-64
2023/10/02 06:45:52;;;;;;;14.35;4.30;;;;;;;;;;2103434;28;20028;-64
2023/10/02 06:47:11;;;;;;;8.05;3.47;;;;;;;;;;2102195;28;20494;-64
2023/10/02 06:48:31;;;;;;;4.78;3.22;;;;;;;;;;2102696;28;20032;-64
2023/10/02 06:49:51;;;;;;;8.80;3.90;;;;;;;;;;2103348;28;20028;-64
2023/10/02 06:51:16;;;;;;;7.45;3.65;;;;;;;;;;2103706;28;20060;-64
2023/10/02 06:52:35;;;;;;;8.68;3.70;;;;;;;;;;2102209;28;20020;-64
2023/10/02 06:54:07;;;;;;;5.60;3.40;;;;;;;;;;2099902;28;20029;-64
2023/10/02 06:55:26;;;;;;;8.82;3.95;;;;;;;;;;2102969;28;20028;-64
2023/10/02 06:56:46;;;;;;;5.28;3.53;;;;;;;;;;2103703;28;20032;-64
2023/10/02 06:58:07;;;;;;;8.45;3.90;;;;;;;;;;2103146;28;20032;-64
2023/10/02 06:59:28;;;;;;;11.80;3.85;;;;;;;;;;2103008;28;20114;-64
2023/10/02 07:01:01;;;;;;;10.60;3.97;;;;;;;;;;2102301;28;20103;-65
2023/10/02 07:02:21;;;;;;;9.75;4.22;;;;;;;;;;2102846;28;20461;-64
2023/10/02 07:03:50;;;;;;;9.82;3.95;;;;;;;;;;2103389;28;20098;-64
2023/10/02 07:05:10;;;;;;;9.25;4.15;;;;;;;;;;2104077;28;20040;-65
2023/10/02 07:06:29;;;;;;;11.70;4.15;;;;;;;;;;2102787;28;20132;-64
2023/10/02 07:07:58;;;;;;;9.02;3.38;;;;;;;;;;2102858;28;20656;-64
2023/10/02 07:09:23;;;;;;;9.60;3.42;;;;;;;;;;2102697;28;20028;-63
2023/10/02 07:10:43;;;;;;;9.52;3.60;;;;;;;;;;2100516;28;20032;-64
2023/10/02 07:12:08;;;;;;;7.38;3.30;;;;;;;;;;2103539;28;20024;-64
2023/10/02 07:13:27;;;;;;;8.27;3.47;;;;;;;;;;2102758;28;20111;-64
2023/10/02 07:14:47;;;;;;;7.15;3.28;;;;;;;;;;2102722;28;20276;-64
2023/10/02 07:16:06;;;;;;;6.75;3.13;;;;;;;;;;2101964;28;20027;-63
2023/10/02 07:17:25;;;;;;;9.57;4.07;;;;;;;;;;2103390;28;20020;-64
2023/10/02 07:18:49;;;;;;;9.38;3.83;;;;;;;;;;2103848;28;20032;-64
2023/10/02 07:20:11;;;;;;;8.48;4.05;;;;;;;;;;2100194;28;20467;-65
2023/10/02 07:21:31;;;;;;;10.63;3.83;;;;;;;;;;2102426;28;20036;-64
2023/10/02 07:22:51;;;;;;;5.55;3.35;;;;;;;;;;2102177;28;20025;-64
2023/10/02 07:24:27;;;;;;;7.93;3.83;;;;;;;;;;2102650;28;20016;-64
2023/10/02 07:25:50;;;;;;;7.03;3.10;;;;;;;;;;2103427;28;20036;-64
2023/10/02 07:27:22;;;;;;;4.82;3.75;;;;;;;;;;2103459;28;20039;-64
2023/10/02 07:28:50;;;;;;;7.07;2.90;;;;;;;;;;2105091;28;20020;-64
2023/10/02 07:30:09;;;;;;;7.25;3.60;;;;;;;;;;2102848;28;20036;-64
2023/10/02 07:31:28;;;;;;;11.35;4.07;;;;;;;;;;2103839;28;20059;-64
2023/10/02 07:32:47;;;;;;;6.65;3.15;;;;;;;;;;2103020;28;20379;-64
2023/10/02 07:34:08;;;;;;;12.85;4.03;;;;;;;;;;2101607;28;20024;-64
2023/10/02 07:35:26;;;;;;;5.78;3.47;;;;;;;;;;2104193;28;20032;-65
2023/10/02 07:36:46;;;;;;;6.25;3.55;;;;;;;;;;2104123;28;20031;-64
2023/10/02 07:38:08;;;;;;;6.13;3.05;;;;;;;;;;2103077;28;20444;-64
2023/10/02 07:39:37;;;;;;;16.30;4.20;;;;;;;;;;2103108;28;20103;-64
2023/10/02 07:41:06;;;;;;;6.78;3.58;;;;;;;;;;2102596;28;20481;-64
2023/10/02 07:42:28;;;;;;;8.23;3.95;;;;;;;;;;2104969;28;20710;-64
2023/10/02 07:43:47;;;;;;;6.78;3.53;;;;;;;;;;2103309;28;20024;-64
2023/10/02 07:45:24;;;;;;;8.48;3.78;;;;;;;;;;2102867;28;20067;-64
2023/10/02 07:46:43;;;;;;;7.13;4.20;;;;;;;;;;2103103;28;20035;-64
2023/10/02 07:48:10;;;;;;;10.13;3.45;;;;;;;;;;2104574;28;20020;-64
2023/10/02 07:49:32;;;;;;;6.28;3.67;;;;;;;;;;2103925;28;20032;-64
2023/10/02 07:50:51;;;;;;;11.55;4.30;;;;;;;;;;2103846;28;20021;-64
2023/10/02 07:52:11;;;;;;;5.97;3.53;;;;;;;;;;2102944;28;20036;-64
2023/10/02 07:53:39;;;;;;;10.90;4.07;;;;;;;;;;2099787;28;20029;-64
2023/10/02 07:54:59;;;;;;;11.40;3.40;;;;;;;;;;2102248;28;20028;-64
2023/10/02 07:56:19;;;;;;;8.95;3.15;;;;;;;;;;2104133;28;20028;-64
2023/10/02 07:57:38;;;;;;;6.78;3.60;;;;;;;;;;2103373;28;20036;-65
2023/10/02 07:59:01;;;;;;;11.43;3.97;;;;;;;;;;2103395;28;20024;-64
2023/10/02 08:00:38;;;;;;;8.68;3.60;;;;;;;;;;2103382;28;20033;-64
2023/10/02 08:02:17;;;;;;;7.30;3.42;;;;;;;;;;2101665;28;20056;-64
2023/10/02 08:03:49;;;;;;;10.23;3.88;;;;;;;;;;2105122;28;20024;-64
2023/10/02 08:05:09;;;;;;;10.43;3.55;;;;;;;;;;2100954;28;20024;-64
2023/10/02 08:08:08;;;;;;;8.38;3.45;;;;;;;;;;2105983;28;20020;-64
2023/10/02 08:09:35;;;;;;;11.65;3.88;;;;;;;;;;2106215;28;20115;-64
2023/10/02 08:10:54;;;;;;;9.93;3.58;;;;;;;;;;2105008;28;20485;-64
2023/10/02 08:12:35;;;;;;;8.77;3.03;;;;;;;;;;2105563;28;20118;-64
2023/10/02 08:13:54;;;;;;;9.13;3.67;;;;;;;;;;2102387;28;20036;-64
2023/10/02 08:15:32;;;;;;;8.27;3.70;;;;;;;;;;2103309;28;20485;-64
2023/10/02 08:17:06;;;;;;;8.77;3.80;;;;;;;;;;2103320;28;20032;-64
2023/10/02 08:18:26;;;;;;;9.73;3.60;;;;;;;;;;2104081;28;20497;-64
2023/10/02 08:19:54;;;;;;;9.73;3.80;;;;;;;;;;2103659;28;20036;-64
2023/10/02 08:21:13;;;;;;;8.27;3.25;;;;;;;;;;2104172;28;20032;-64
2023/10/02 08:22:44;;;;;;;9.57;3.90;;;;;;;;;;2104512;28;20024;-64
2023/10/02 08:24:03;;;;;;;10.20;4.00;;;;;;;;;;2103092;28;20032;-64
2023/10/02 08:25:23;;;;;;;12.00;3.88;;;;;;;;;;2102883;28;20111;-64
2023/10/02 08:26:45;;;;;;;9.85;4.15;;;;;;;;;;2103018;28;20648;-64
2023/10/02 08:28:07;;;;;;;6.97;3.70;;;;;;;;;;2104245;28;20338;-64
2023/10/02 08:29:27;;;;;;;12.35;3.78;;;;;;;;;;2103719;28;20016;-64
2023/10/02 08:30:59;;;;;;;9.27;3.45;;;;;;;;;;2103807;28;20110;-64
2023/10/02 08:32:28;;;;;;;7.60;3.65;;;;;;;;;;2104012;28;20488;-64
2023/10/02 08:33:48;;;;;;;9.77;3.55;;;;;;;;;;2104569;28;20036;-64
2023/10/02 08:35:13;;;;;;;9.73;4.00;;;;;;;;;;2103188;28;20392;-64
2023/10/02 08:36:33;;;;;;;9.65;3.95;;;;;;;;;;2098812;28;20032;-64
2023/10/02 08:37:54;;;;;;;10.27;3.80;;;;;;;;;;2100378;28;20044;-65
2023/10/02 08:39:13;;;;;;;9.85;4.00;;;;;;;;;;2103437;28;20036;-64
2023/10/02 08:40:32;;;;;;;11.82;4.35;;;;;;;;;;2104226;28;20031;-64
2023/10/02 08:41:51;;;;;;;11.65;4.03;;;;;;;;;;2103447;28;20024;-64
2023/10/02 08:43:10;;;;;;;8.55;3.90;;;;;;;;;;2105480;28;20032;-64
2023/10/02 08:44:37;;;;;;;8.50;3.90;;;;;;;;;;2103147;28;20024;-64
2023/10/02 08:45:56;;;;;;;9.73;4.15;;;;;;;;;;2105129;28;20036;-64
2023/10/02 08:47:24;;;;;;;8.20;4.35;;;;;;;;;;2103666;28;20434;-64
2023/10/02 08:48:45;;;;;;;7.85;3.97;;;;;;;;;;2102196;28;20072;-64
2023/10/02 08:50:04;;;;;;;11.18;4.15;;;;;;;;;;2101374;28;20025;-64
2023/10/02 08:51:32;;;;;;;5.53;3.70;;;;;;;;;;2104200;28;20028;-64
2023/10/02 08:52:52;;;;;;;7.13;4.22;;;;;;;;;;2104408;28;20024;-64